sensor_id;sensor_type;location;lat;lon;timestamp;pressure;altitude;pressure_sealevel;temperature;humidity
45129;BME280;35512;56.312;101.728;2023-11-19T00:00:30;94616.72;;;2.11;78.05
45129;BME280;35512;56.312;101.728;2023-11-19T00:02:59;94612.22;;;2.15;78.11
45129;BME280;35512;56.312;101.728;2023-11-19T00:05:28;94604.69;;;2.17;78.67
45129;BME280;35512;56.312;101.728;2023-11-19T00:07:57;94588.78;;;2.21;77.88
45129;BME280;35512;56.312;101.728;2023-11-19T00:10:26;94584.63;;;2.24;78.10
45129;BME280;35512;56.312;101.728;2023-11-19T00:12:55;94573.97;;;2.24;77.98
45129;BME280;35512;56.312;101.728;2023-11-19T00:15:25;94575.16;;;2.26;78.01
45129;BME280;35512;56.312;101.728;2023-11-19T00:17:53;94566.81;;;2.28;78.43
45129;BME280;35512;56.312;101.728;2023-11-19T00:20:25;94582.44;;;2.29;78.80
45129;BME280;35512;56.312;101.728;2023-11-19T00:22:54;94568.06;;;2.34;77.85
45129;BME280;35512;56.312;101.728;2023-11-19T00:25:22;94541.06;;;2.35;77.53
45129;BME280;35512;56.312;101.728;2023-11-19T00:27:51;94557.84;;;2.36;77.17
45129;BME280;35512;56.312;101.728;2023-11-19T00:30:21;94550.97;;;2.35;77.79
45129;BME280;35512;56.312;101.728;2023-11-19T00:32:50;94545.28;;;2.36;77.88
45129;BME280;35512;56.312;101.728;2023-11-19T00:35:18;94549.41;;;2.34;78.22
45129;BME280;35512;56.312;101.728;2023-11-19T00:37:48;94533.50;;;2.38;77.73
45129;BME280;35512;56.312;101.728;2023-11-19T00:40:17;94527.03;;;2.39;77.50
45129;BME280;35512;56.312;101.728;2023-11-19T00:42:46;94506.88;;;2.38;78.20
45129;BME280;35512;56.312;101.728;2023-11-19T00:45:15;94495.06;;;2.39;78.18
45129;BME280;35512;56.312;101.728;2023-11-19T00:47:44;94483.75;;;2.45;77.86
45129;BME280;35512;56.312;101.728;2023-11-19T00:50:12;94519.47;;;2.41;78.34
45129;BME280;35512;56.312;101.728;2023-11-19T00:52:41;94529.38;;;2.40;77.96
45129;BME280;35512;56.312;101.728;2023-11-19T00:55:09;94503.53;;;2.44;77.26
45129;BME280;35512;56.312;101.728;2023-11-19T00:57:40;94499.72;;;2.45;76.72
45129;BME280;35512;56.312;101.728;2023-11-19T01:00:10;94475.72;;;2.42;77.30
45129;BME280;35512;56.312;101.728;2023-11-19T01:02:52;94475.75;;;2.45;77.63
45129;BME280;35512;56.312;101.728;2023-11-19T01:05:20;94481.88;;;2.46;77.79
45129;BME280;35512;56.312;101.728;2023-11-19T01:07:51;94504.41;;;2.52;77.76
45129;BME280;35512;56.312;101.728;2023-11-19T01:10:23;94480.13;;;2.57;77.92
45129;BME280;35512;56.312;101.728;2023-11-19T01:12:52;94470.72;;;2.63;77.00
45129;BME280;35512;56.312;101.728;2023-11-19T01:15:21;94438.75;;;2.63;76.66
45129;BME280;35512;56.312;101.728;2023-11-19T01:17:51;94425.34;;;2.60;76.06
45129;BME280;35512;56.312;101.728;2023-11-19T01:20:21;94384.47;;;2.48;76.69
45129;BME280;35512;56.312;101.728;2023-11-19T01:22:50;94413.31;;;2.43;77.27
45129;BME280;35512;56.312;101.728;2023-11-19T01:25:18;94424.38;;;2.45;77.21
45129;BME280;35512;56.312;101.728;2023-11-19T01:27:47;94428.63;;;2.49;77.18
45129;BME280;35512;56.312;101.728;2023-11-19T01:30:16;94450.00;;;2.53;77.31
45129;BME280;35512;56.312;101.728;2023-11-19T01:32:44;94451.94;;;2.56;77.40
45129;BME280;35512;56.312;101.728;2023-11-19T01:35:12;94454.25;;;2.58;77.08
45129;BME280;35512;56.312;101.728;2023-11-19T01:37:41;94450.81;;;2.57;77.93
45129;BME280;35512;56.312;101.728;2023-11-19T01:40:11;94440.97;;;2.61;77.72
45129;BME280;35512;56.312;101.728;2023-11-19T01:42:40;94437.94;;;2.63;77.74
45129;BME280;35512;56.312;101.728;2023-11-19T01:45:09;94431.97;;;2.69;77.14
45129;BME280;35512;56.312;101.728;2023-11-19T01:47:38;94434.25;;;2.71;76.90
45129;BME280;35512;56.312;101.728;2023-11-19T01:50:07;94409.00;;;2.61;77.22
45129;BME280;35512;56.312;101.728;2023-11-19T01:52:38;94403.13;;;2.48;77.85
45129;BME280;35512;56.312;101.728;2023-11-19T01:55:07;94425.75;;;2.35;78.86
45129;BME280;35512;56.312;101.728;2023-11-19T01:57:38;94427.16;;;2.25;79.41
45129;BME280;35512;56.312;101.728;2023-11-19T02:00:10;94404.59;;;2.19;79.96
45129;BME280;35512;56.312;101.728;2023-11-19T02:02:40;94379.88;;;2.18;80.38
45129;BME280;35512;56.312;101.728;2023-11-19T02:05:10;94372.56;;;2.15;80.65
45129;BME280;35512;56.312;101.728;2023-11-19T02:07:40;94336.44;;;2.14;80.35
45129;BME280;35512;56.312;101.728;2023-11-19T02:10:08;94333.34;;;2.12;80.54
45129;BME280;35512;56.312;101.728;2023-11-19T02:12:41;94331.47;;;2.13;80.29
45129;BME280;35512;56.312;101.728;2023-11-19T02:15:13;94307.50;;;2.13;80.49
45129;BME280;35512;56.312;101.728;2023-11-19T02:17:42;94283.53;;;2.13;80.47
45129;BME280;35512;56.312;101.728;2023-11-19T02:20:11;94278.22;;;2.13;81.10
45129;BME280;35512;56.312;101.728;2023-11-19T02:22:42;94283.22;;;2.18;80.84
45129;BME280;35512;56.312;101.728;2023-11-19T02:25:31;94289.78;;;2.24;80.50
45129;BME280;35512;56.312;101.728;2023-11-19T02:28:01;94272.75;;;2.32;79.32
45129;BME280;35512;56.312;101.728;2023-11-19T02:30:30;94267.50;;;2.40;79.41
45129;BME280;35512;56.312;101.728;2023-11-19T02:33:00;94258.53;;;2.51;79.84
45129;BME280;35512;56.312;101.728;2023-11-19T02:35:33;94241.56;;;2.67;78.56
45129;BME280;35512;56.312;101.728;2023-11-19T02:38:02;94251.56;;;2.77;77.88
45129;BME280;35512;56.312;101.728;2023-11-19T02:40:34;94236.03;;;2.83;77.65
45129;BME280;35512;56.312;101.728;2023-11-19T02:43:03;94236.06;;;2.86;77.50
45129;BME280;35512;56.312;101.728;2023-11-19T02:45:33;94244.50;;;2.92;77.27
45129;BME280;35512;56.312;101.728;2023-11-19T02:48:02;94239.97;;;2.96;76.68
45129;BME280;35512;56.312;101.728;2023-11-19T02:50:31;94229.31;;;3.00;77.00
45129;BME280;35512;56.312;101.728;2023-11-19T02:53:00;94219.44;;;3.00;76.58
45129;BME280;35512;56.312;101.728;2023-11-19T02:55:30;94234.31;;;3.01;76.68
45129;BME280;35512;56.312;101.728;2023-11-19T02:58:04;94235.44;;;3.04;75.87
45129;BME280;35512;56.312;101.728;2023-11-19T03:00:48;94239.97;;;3.00;76.67
45129;BME280;35512;56.312;101.728;2023-11-19T03:03:27;94220.97;;;3.01;76.30
45129;BME280;35512;56.312;101.728;2023-11-19T03:06:07;94230.09;;;3.00;76.19
45129;BME280;35512;56.312;101.728;2023-11-19T03:08:35;94223.97;;;3.00;76.75
45129;BME280;35512;56.312;101.728;2023-11-19T03:11:04;94199.66;;;3.01;77.20
45129;BME280;35512;56.312;101.728;2023-11-19T03:13:33;94217.94;;;3.07;77.33
45129;BME280;35512;56.312;101.728;2023-11-19T03:16:01;94203.53;;;3.11;76.99
45129;BME280;35512;56.312;101.728;2023-11-19T03:18:30;94210.03;;;3.14;77.52
45129;BME280;35512;56.312;101.728;2023-11-19T03:20:58;94218.47;;;3.19;75.92
45129;BME280;35512;56.312;101.728;2023-11-19T03:23:27;94210.09;;;3.21;77.16
45129;BME280;35512;56.312;101.728;2023-11-19T03:25:56;94220.38;;;3.22;77.19
45129;BME280;35512;56.312;101.728;2023-11-19T03:28:25;94216.59;;;3.27;76.00
45129;BME280;35512;56.312;101.728;2023-11-19T03:30:54;94204.44;;;3.30;76.01
45129;BME280;35512;56.312;101.728;2023-11-19T03:33:23;94197.22;;;3.30;76.18
45129;BME280;35512;56.312;101.728;2023-11-19T03:35:51;94201.41;;;3.31;76.66
45129;BME280;35512;56.312;101.728;2023-11-19T03:38:20;94202.56;;;3.34;76.73
45129;BME280;35512;56.312;101.728;2023-11-19T03:40:49;94190.00;;;3.34;76.54
45129;BME280;35512;56.312;101.728;2023-11-19T03:43:18;94191.91;;;3.37;76.91
45129;BME280;35512;56.312;101.728;2023-11-19T03:45:47;94201.03;;;3.36;77.34
45129;BME280;35512;56.312;101.728;2023-11-19T03:48:16;94195.78;;;3.44;76.23
45129;BME280;35512;56.312;101.728;2023-11-19T03:50:44;94191.19;;;3.44;77.19
45129;BME280;35512;56.312;101.728;2023-11-19T03:53:13;94197.31;;;3.48;77.20
45129;BME280;35512;56.312;101.728;2023-11-19T03:55:43;94188.19;;;3.49;77.78
45129;BME280;35512;56.312;101.728;2023-11-19T03:58:12;94173.69;;;3.50;76.88
45129;BME280;35512;56.312;101.728;2023-11-19T04:00:41;94171.44;;;3.52;76.74
45129;BME280;35512;56.312;101.728;2023-11-19T04:03:12;94179.03;;;3.50;77.46
45129;BME280;35512;56.312;101.728;2023-11-19T04:05:40;94168.38;;;3.54;77.77
45129;BME280;35512;56.312;101.728;2023-11-19T04:08:09;94158.91;;;3.60;77.19
45129;BME280;35512;56.312;101.728;2023-11-19T04:10:38;94157.00;;;3.61;76.63
45129;BME280;35512;56.312;101.728;2023-11-19T04:13:06;94149.72;;;3.54;77.47
45129;BME280;35512;56.312;101.728;2023-11-19T04:15:35;94159.22;;;3.51;78.25
45129;BME280;35512;56.312;101.728;2023-11-19T04:18:03;94150.09;;;3.52;78.76
45129;BME280;35512;56.312;101.728;2023-11-19T04:20:32;94164.22;;;3.57;78.88
45129;BME280;35512;56.312;101.728;2023-11-19T04:23:00;94165.34;;;3.52;78.26
45129;BME280;35512;56.312;101.728;2023-11-19T04:25:28;94158.06;;;3.49;78.75
45129;BME280;35512;56.312;101.728;2023-11-19T04:27:57;94142.84;;;3.49;79.31
45129;BME280;35512;56.312;101.728;2023-11-19T04:30:26;94150.84;;;3.53;78.95
45129;BME280;35512;56.312;101.728;2023-11-19T04:32:55;94145.47;;;3.46;79.42
45129;BME280;35512;56.312;101.728;2023-11-19T04:35:24;94146.63;;;3.48;79.28
45129;BME280;35512;56.312;101.728;2023-11-19T04:37:54;94146.22;;;3.46;79.43
45129;BME280;35512;56.312;101.728;2023-11-19T04:40:25;94127.94;;;3.48;79.16
45129;BME280;35512;56.312;101.728;2023-11-19T04:42:54;94124.88;;;3.43;79.29
45129;BME280;35512;56.312;101.728;2023-11-19T04:45:23;94081.06;;;3.47;79.69
45129;BME280;35512;56.312;101.728;2023-11-19T04:47:52;94052.84;;;3.43;80.12
45129;BME280;35512;56.312;101.728;2023-11-19T04:50:20;94032.66;;;3.45;80.73
45129;BME280;35512;56.312;101.728;2023-11-19T04:52:49;94023.88;;;3.48;80.35
45129;BME280;35512;56.312;101.728;2023-11-19T04:55:18;94031.91;;;3.52;80.73
45129;BME280;35512;56.312;101.728;2023-11-19T04:57:46;94035.34;;;3.52;80.92
45129;BME280;35512;56.312;101.728;2023-11-19T05:00:17;94040.31;;;3.58;81.19
45129;BME280;35512;56.312;101.728;2023-11-19T05:02:48;94042.63;;;3.59;80.42
45129;BME280;35512;56.312;101.728;2023-11-19T05:05:17;94043.38;;;3.63;80.20
45129;BME280;35512;56.312;101.728;2023-11-19T05:07:48;94045.69;;;3.65;80.25
45129;BME280;35512;56.312;101.728;2023-11-19T05:10:16;94049.16;;;3.72;80.10
45129;BME280;35512;56.312;101.728;2023-11-19T05:12:45;94057.59;;;3.82;80.19
45129;BME280;35512;56.312;101.728;2023-11-19T05:15:13;94061.41;;;3.95;80.29
45129;BME280;35512;56.312;101.728;2023-11-19T05:17:42;94043.53;;;4.14;78.59
45129;BME280;35512;56.312;101.728;2023-11-19T05:20:10;94045.47;;;4.20;77.89
45129;BME280;35512;56.312;101.728;2023-11-19T05:22:41;94034.41;;;4.26;77.09
45129;BME280;35512;56.312;101.728;2023-11-19T05:25:10;94028.69;;;4.27;77.70
45129;BME280;35512;56.312;101.728;2023-11-19T05:27:39;94016.47;;;4.26;77.96
45129;BME280;35512;56.312;101.728;2023-11-19T05:30:07;94019.88;;;4.27;78.61
45129;BME280;35512;56.312;101.728;2023-11-19T05:32:37;94016.84;;;4.28;78.02
45129;BME280;35512;56.312;101.728;2023-11-19T05:35:06;94016.84;;;4.28;77.68
45129;BME280;35512;56.312;101.728;2023-11-19T05:37:36;94013.03;;;4.26;77.77
45129;BME280;35512;56.312;101.728;2023-11-19T05:40:05;94009.19;;;4.27;77.88
45129;BME280;35512;56.312;101.728;2023-11-19T05:42:43;94002.34;;;4.22;78.40
45129;BME280;35512;56.312;101.728;2023-11-19T05:45:11;94005.00;;;4.18;77.99
45129;BME280;35512;56.312;101.728;2023-11-19T05:47:40;94006.13;;;4.10;77.95
45129;BME280;35512;56.312;101.728;2023-11-19T05:50:09;94004.59;;;4.02;77.75
45129;BME280;35512;56.312;101.728;2023-11-19T05:52:38;94008.41;;;3.97;78.15
45129;BME280;35512;56.312;101.728;2023-11-19T05:55:06;94011.47;;;3.96;78.91
45129;BME280;35512;56.312;101.728;2023-11-19T05:57:37;94009.53;;;3.96;78.88
45129;BME280;35512;56.312;101.728;2023-11-19T06:00:09;93988.59;;;3.98;78.46
45129;BME280;35512;56.312;101.728;2023-11-19T06:02:46;93965.31;;;4.02;78.91
45129;BME280;35512;56.312;101.728;2023-11-19T06:05:14;93966.44;;;3.98;79.28
45129;BME280;35512;56.312;101.728;2023-11-19T06:07:43;93953.84;;;4.02;79.26
45129;BME280;35512;56.312;101.728;2023-11-19T06:10:12;93935.53;;;4.11;79.28
45129;BME280;35512;56.312;101.728;2023-11-19T06:12:42;93931.72;;;4.19;79.49
45129;BME280;35512;56.312;101.728;2023-11-19T06:15:10;93927.16;;;4.23;79.59
45129;BME280;35512;56.312;101.728;2023-11-19T06:17:39;93933.63;;;4.33;79.62
45129;BME280;35512;56.312;101.728;2023-11-19T06:20:08;93938.22;;;4.36;78.75
45129;BME280;35512;56.312;101.728;2023-11-19T06:22:37;93936.69;;;4.35;78.11
45129;BME280;35512;56.312;101.728;2023-11-19T06:25:05;93934.41;;;4.27;78.21
45129;BME280;35512;56.312;101.728;2023-11-19T06:27:35;93976.00;;;4.17;78.06
45129;BME280;35512;56.312;101.728;2023-11-19T06:30:04;93964.94;;;4.11;78.74
45129;BME280;35512;56.312;101.728;2023-11-19T06:32:33;93973.72;;;4.08;78.20
45129;BME280;35512;56.312;101.728;2023-11-19T06:35:02;94014.50;;;3.98;78.50
45129;BME280;35512;56.312;101.728;2023-11-19T06:37:32;94033.19;;;3.91;78.84
45129;BME280;35512;56.312;101.728;2023-11-19T06:40:01;94019.81;;;3.83;78.64
45129;BME280;35512;56.312;101.728;2023-11-19T06:42:30;93971.72;;;3.76;78.93
45129;BME280;35512;56.312;101.728;2023-11-19T06:44:59;93990.38;;;3.65;79.40
45129;BME280;35512;56.312;101.728;2023-11-19T06:47:29;93996.84;;;3.53;80.04
45129;BME280;35512;56.312;101.728;2023-11-19T06:49:58;94002.19;;;3.57;81.37
45129;BME280;35512;56.312;101.728;2023-11-19T06:52:27;93974.00;;;3.63;81.81
45129;BME280;35512;56.312;101.728;2023-11-19T06:54:56;93966.00;;;3.70;81.73
45129;BME280;35512;56.312;101.728;2023-11-19T06:57:28;93962.97;;;3.83;82.43
45129;BME280;35512;56.312;101.728;2023-11-19T06:59:59;93928.69;;;4.14;82.15
45129;BME280;35512;56.312;101.728;2023-11-19T07:02:30;93914.56;;;4.38;81.99
45129;BME280;35512;56.312;101.728;2023-11-19T07:04:59;93900.78;;;4.51;82.53
45129;BME280;35512;56.312;101.728;2023-11-19T07:07:28;93887.03;;;4.60;81.77
45129;BME280;35512;56.312;101.728;2023-11-19T07:09:57;93884.72;;;4.69;82.15
45129;BME280;35512;56.312;101.728;2023-11-19T07:12:25;93867.53;;;4.73;82.32
45129;BME280;35512;56.312;101.728;2023-11-19T07:14:56;93853.75;;;4.75;81.99
45129;BME280;35512;56.312;101.728;2023-11-19T07:17:24;93851.88;;;4.72;81.18
45129;BME280;35512;56.312;101.728;2023-11-19T07:19:53;93855.31;;;4.69;81.89
45129;BME280;35512;56.312;101.728;2023-11-19T07:22:22;93850.69;;;4.73;81.89
45129;BME280;35512;56.312;101.728;2023-11-19T07:24:50;93865.56;;;4.81;82.28
45129;BME280;35512;56.312;101.728;2023-11-19T07:27:21;93861.72;;;4.97;82.54
45129;BME280;35512;56.312;101.728;2023-11-19T07:29:50;93863.56;;;5.11;82.26
45129;BME280;35512;56.312;101.728;2023-11-19T07:32:19;93865.00;;;5.30;82.67
45129;BME280;35512;56.312;101.728;2023-11-19T07:34:48;93865.28;;;5.46;81.91
45129;BME280;35512;56.312;101.728;2023-11-19T07:37:18;93887.03;;;5.59;81.90
45129;BME280;35512;56.312;101.728;2023-11-19T07:39:46;93876.53;;;5.79;81.08
45129;BME280;35512;56.312;101.728;2023-11-19T07:42:15;93858.13;;;5.88;81.26
45129;BME280;35512;56.312;101.728;2023-11-19T07:44:43;93874.19;;;5.92;81.06
45129;BME280;35512;56.312;101.728;2023-11-19T07:47:12;93886.00;;;6.02;81.01
45129;BME280;35512;56.312;101.728;2023-11-19T07:49:41;93866.41;;;6.08;81.65
45129;BME280;35512;56.312;101.728;2023-11-19T07:52:12;93856.38;;;6.20;81.08
45129;BME280;35512;56.312;101.728;2023-11-19T07:54:43;93825.22;;;6.37;81.11
45129;BME280;35512;56.312;101.728;2023-11-19T07:57:11;93821.84;;;6.64;80.05
45129;BME280;35512;56.312;101.728;2023-11-19T07:59:40;93802.44;;;6.87;80.23
45129;BME280;35512;56.312;101.728;2023-11-19T08:02:10;93835.03;;;7.16;78.85
45129;BME280;35512;56.312;101.728;2023-11-19T08:04:39;93834.69;;;7.41;77.39
45129;BME280;35512;56.312;101.728;2023-11-19T08:07:13;93850.19;;;7.61;76.10
45129;BME280;35512;56.312;101.728;2023-11-19T08:09:45;93846.16;;;7.73;75.64
45129;BME280;35512;56.312;101.728;2023-11-19T08:12:14;93838.34;;;7.82;75.47
45129;BME280;35512;56.312;101.728;2023-11-19T08:14:45;93848.19;;;7.92;75.45
45129;BME280;35512;56.312;101.728;2023-11-19T08:17:13;93834.91;;;8.05;74.59
45129;BME280;35512;56.312;101.728;2023-11-19T08:19:42;93830.53;;;8.15;75.15
45129;BME280;35512;56.312;101.728;2023-11-19T08:22:10;93832.63;;;8.27;75.18
45129;BME280;35512;56.312;101.728;2023-11-19T08:24:39;93833.06;;;8.50;75.71
45129;BME280;35512;56.312;101.728;2023-11-19T08:27:07;93840.09;;;8.63;72.55
45129;BME280;35512;56.312;101.728;2023-11-19T08:29:36;93815.25;;;8.56;72.91
45129;BME280;35512;56.312;101.728;2023-11-19T08:32:04;93818.19;;;8.41;73.26
45129;BME280;35512;56.312;101.728;2023-11-19T08:34:34;93821.34;;;8.36;74.80
45129;BME280;35512;56.312;101.728;2023-11-19T08:37:03;93807.06;;;8.39;75.12
45129;BME280;35512;56.312;101.728;2023-11-19T08:39:31;93808.09;;;8.25;75.71
45129;BME280;35512;56.312;101.728;2023-11-19T08:42:00;93822.28;;;8.02;76.14
45129;BME280;35512;56.312;101.728;2023-11-19T08:44:28;93829.13;;;7.83;76.28
45129;BME280;35512;56.312;101.728;2023-11-19T08:46:57;93833.53;;;7.70;77.61
45129;BME280;35512;56.312;101.728;2023-11-19T08:49:26;93834.84;;;7.58;78.34
45129;BME280;35512;56.312;101.728;2023-11-19T08:51:54;93851.84;;;7.51;78.93
45129;BME280;35512;56.312;101.728;2023-11-19T08:54:24;93848.38;;;7.51;79.78
45129;BME280;35512;56.312;101.728;2023-11-19T08:56:53;93864.91;;;7.49;79.38
45129;BME280;35512;56.312;101.728;2023-11-19T08:59:21;93845.44;;;7.41;78.81
45129;BME280;35512;56.312;101.728;2023-11-19T09:01:51;93850.66;;;7.25;78.42
45129;BME280;35512;56.312;101.728;2023-11-19T09:04:20;93846.34;;;7.00;78.59
45129;BME280;35512;56.312;101.728;2023-11-19T09:06:50;93821.78;;;6.71;79.19
45129;BME280;35512;56.312;101.728;2023-11-19T09:09:19;93816.66;;;6.49;79.69
45129;BME280;35512;56.312;101.728;2023-11-19T09:11:48;93811.59;;;6.20;79.95
45129;BME280;35512;56.312;101.728;2023-11-19T09:14:17;93804.16;;;5.90;80.20
45129;BME280;35512;56.312;101.728;2023-11-19T09:16:46;93789.81;;;5.66;80.81
45129;BME280;35512;56.312;101.728;2023-11-19T09:19:15;93791.88;;;5.44;81.44
45129;BME280;35512;56.312;101.728;2023-11-19T09:21:44;93792.00;;;5.25;81.30
45129;BME280;35512;56.312;101.728;2023-11-19T09:24:13;93782.91;;;5.16;82.43
45129;BME280;35512;56.312;101.728;2023-11-19T09:26:43;93795.94;;;5.10;82.22
45129;BME280;35512;56.312;101.728;2023-11-19T09:29:12;93789.81;;;5.10;82.26
45129;BME280;35512;56.312;101.728;2023-11-19T09:31:42;93791.28;;;5.18;82.93
45129;BME280;35512;56.312;101.728;2023-11-19T09:34:11;93798.75;;;5.45;81.96
45129;BME280;35512;56.312;101.728;2023-11-19T09:36:40;93794.91;;;5.49;80.60
45129;BME280;35512;56.312;101.728;2023-11-19T09:39:12;93789.59;;;5.42;80.52
45129;BME280;35512;56.312;101.728;2023-11-19T09:41:46;93798.47;;;5.32;80.56
45129;BME280;35512;56.312;101.728;2023-11-19T09:44:15;93787.34;;;5.37;81.76
45129;BME280;35512;56.312;101.728;2023-11-19T09:46:46;93787.56;;;5.61;81.36
45129;BME280;35512;56.312;101.728;2023-11-19T09:49:17;93802.63;;;5.89;80.98
45129;BME280;35512;56.312;101.728;2023-11-19T09:51:54;93830.81;;;6.08;80.65
45129;BME280;35512;56.312;101.728;2023-11-19T09:54:24;93855.56;;;6.23;80.03
45129;BME280;35512;56.312;101.728;2023-11-19T09:56:52;93836.72;;;6.34;79.00
45129;BME280;35512;56.312;101.728;2023-11-19T09:59:21;93793.38;;;6.42;76.96
45129;BME280;35512;56.312;101.728;2023-11-19T10:01:51;93812.78;;;6.50;76.22
45129;BME280;35512;56.312;101.728;2023-11-19T10:04:22;93844.19;;;6.53;75.82
45129;BME280;35512;56.312;101.728;2023-11-19T10:06:51;93874.09;;;6.52;76.38
45129;BME280;35512;56.312;101.728;2023-11-19T10:09:20;93932.38;;;6.44;75.79
45129;BME280;35512;56.312;101.728;2023-11-19T10:11:48;93901.44;;;6.32;76.67
45129;BME280;35512;56.312;101.728;2023-11-19T10:14:19;93875.06;;;6.27;75.86
45129;BME280;35512;56.312;101.728;2023-11-19T10:16:51;93847.91;;;6.25;75.84
45129;BME280;35512;56.312;101.728;2023-11-19T10:19:21;93829.06;;;6.32;76.04
45129;BME280;35512;56.312;101.728;2023-11-19T10:21:50;93850.47;;;6.39;76.45
45129;BME280;35512;56.312;101.728;2023-11-19T10:24:28;93864.13;;;6.49;76.94
45129;BME280;35512;56.312;101.728;2023-11-19T10:26:59;93867.53;;;6.53;76.73
45129;BME280;35512;56.312;101.728;2023-11-19T10:29:29;93874.88;;;6.49;77.01
45129;BME280;35512;56.312;101.728;2023-11-19T10:31:58;93874.53;;;6.43;76.90
45129;BME280;35512;56.312;101.728;2023-11-19T10:34:47;93887.63;;;6.37;77.63
45129;BME280;35512;56.312;101.728;2023-11-19T10:37:28;93887.69;;;6.26;77.14
45129;BME280;35512;56.312;101.728;2023-11-19T10:40:01;93898.16;;;6.14;77.84
45129;BME280;35512;56.312;101.728;2023-11-19T10:42:33;93895.16;;;6.04;78.61
45129;BME280;35512;56.312;101.728;2023-11-19T10:45:02;93900.91;;;5.96;78.69
45129;BME280;35512;56.312;101.728;2023-11-19T10:47:31;93902.13;;;5.87;78.70
45129;BME280;35512;56.312;101.728;2023-11-19T10:50:05;93905.63;;;5.81;79.11
45129;BME280;35512;56.312;101.728;2023-11-19T10:52:34;93904.88;;;5.76;79.39
45129;BME280;35512;56.312;101.728;2023-11-19T10:55:03;93907.22;;;5.71;79.23
45129;BME280;35512;56.312;101.728;2023-11-19T10:57:34;93896.91;;;5.66;79.47
45129;BME280;35512;56.312;101.728;2023-11-19T11:00:06;93908.44;;;5.59;79.55
45129;BME280;35512;56.312;101.728;2023-11-19T11:02:41;93913.06;;;5.51;80.00
45129;BME280;35512;56.312;101.728;2023-11-19T11:05:11;93913.09;;;5.44;80.36
45129;BME280;35512;56.312;101.728;2023-11-19T11:07:40;93915.41;;;5.42;80.41
45129;BME280;35512;56.312;101.728;2023-11-19T11:10:11;93923.38;;;5.49;79.86
45129;BME280;35512;56.312;101.728;2023-11-19T11:12:41;93921.44;;;5.57;80.14
45129;BME280;35512;56.312;101.728;2023-11-19T11:15:12;93922.19;;;5.65;78.81
45129;BME280;35512;56.312;101.728;2023-11-19T11:17:41;93926.28;;;5.80;78.29
45129;BME280;35512;56.312;101.728;2023-11-19T11:20:12;93933.91;;;5.85;77.73
45129;BME280;35512;56.312;101.728;2023-11-19T11:28:12;93978.06;;;6.26;75.96
45129;BME280;35512;56.312;101.728;2023-11-19T11:31:02;93987.88;;;6.47;73.30
45129;BME280;35512;56.312;101.728;2023-11-19T11:38:42;94007.13;;;6.80;70.15
45129;BME280;35512;56.312;101.728;2023-11-19T11:43:45;94035.63;;;6.67;72.47
45129;BME280;35512;56.312;101.728;2023-11-19T11:49:05;94038.31;;;6.67;71.98
45129;BME280;35512;56.312;101.728;2023-11-19T11:52:20;94047.09;;;6.71;71.07
45129;BME280;35512;56.312;101.728;2023-11-19T12:02:14;94080.84;;;6.65;68.88
45129;BME280;35512;56.312;101.728;2023-11-19T12:04:48;94070.84;;;6.69;66.85
45129;BME280;35512;56.312;101.728;2023-11-19T12:07:18;94079.25;;;6.71;68.05
45129;BME280;35512;56.312;101.728;2023-11-19T12:09:48;94094.56;;;6.74;67.93
45129;BME280;35512;56.312;101.728;2023-11-19T12:20:04;94131.34;;;6.73;69.81
45129;BME280;35512;56.312;101.728;2023-11-19T12:22:43;94157.47;;;6.62;71.08
45129;BME280;35512;56.312;101.728;2023-11-19T12:25:12;94157.88;;;6.57;71.32
45129;BME280;35512;56.312;101.728;2023-11-19T12:27:45;94158.31;;;6.52;70.70
45129;BME280;35512;56.312;101.728;2023-11-19T12:30:31;94185.56;;;6.39;70.41
45129;BME280;35512;56.312;101.728;2023-11-19T12:33:07;94176.38;;;6.30;70.11
45129;BME280;35512;56.312;101.728;2023-11-19T12:35:45;94174.50;;;6.23;69.23
45129;BME280;35512;56.312;101.728;2023-11-19T12:38:23;94189.47;;;6.20;68.57
45129;BME280;35512;56.312;101.728;2023-11-19T12:41:05;94213.19;;;6.15;69.92
45129;BME280;35512;56.312;101.728;2023-11-19T12:43:34;94217.81;;;6.07;68.70
45129;BME280;35512;56.312;101.728;2023-11-19T12:46:18;94235.44;;;5.97;68.00
45129;BME280;35512;56.312;101.728;2023-11-19T12:48:51;94235.41;;;5.90;68.20
45129;BME280;35512;56.312;101.728;2023-11-19T12:51:19;94257.63;;;5.76;68.19
45129;BME280;35512;56.312;101.728;2023-11-19T12:53:49;94257.63;;;5.65;66.19
45129;BME280;35512;56.312;101.728;2023-11-19T12:56:18;94251.91;;;5.59;64.75
45129;BME280;35512;56.312;101.728;2023-11-19T12:58:47;94298.94;;;5.57;61.25
45129;BME280;35512;56.312;101.728;2023-11-19T13:01:19;94310.03;;;5.52;61.77
45129;BME280;35512;56.312;101.728;2023-11-19T13:03:49;94298.16;;;5.42;62.77
45129;BME280;35512;56.312;101.728;2023-11-19T13:06:19;94281.72;;;5.29;63.11
45129;BME280;35512;56.312;101.728;2023-11-19T13:08:49;94288.19;;;5.21;61.21
45129;BME280;35512;56.312;101.728;2023-11-19T13:11:33;94300.78;;;5.13;61.47
45129;BME280;35512;56.312;101.728;2023-11-19T13:14:04;94309.53;;;5.03;61.85
45129;BME280;35512;56.312;101.728;2023-11-19T13:16:33;94315.25;;;4.87;63.31
45129;BME280;35512;56.312;101.728;2023-11-19T13:19:02;94327.06;;;4.79;62.01
45129;BME280;35512;56.312;101.728;2023-11-19T13:21:31;94353.34;;;4.69;63.17
45129;BME280;35512;56.312;101.728;2023-11-19T13:24:00;94351.00;;;4.61;64.18
45129;BME280;35512;56.312;101.728;2023-11-19T13:26:28;94362.75;;;4.45;65.33
45129;BME280;35512;56.312;101.728;2023-11-19T13:28:57;94372.22;;;4.32;65.32
45129;BME280;35512;56.312;101.728;2023-11-19T13:31:26;94369.91;;;4.30;65.44
45129;BME280;35512;56.312;101.728;2023-11-19T13:33:55;94386.28;;;4.25;64.67
45129;BME280;35512;56.312;101.728;2023-11-19T13:36:25;94348.50;;;4.23;64.92